Time;durP1;ratioP1;P1;durP2;ratioP2;P2;SDS_P1;SDS_P2;PMS_P1;PMS_P2;Temp;Humidity;BMP_temperature;BMP_pressure;BME280_temperature;BME280_humidity;BME280_pressure;Samples;Min_cycle;Max_cycle;Signal;HPM_P1;HPM_P2
2022/10/15 00:01:29;;;;;;;16.58;14.10;;;;;;;-145.23;100.00;58621.06;5040323;28;20242;-52
2022/10/15 00:03:55;;;;;;;18.83;14.50;;;;;;;-145.23;100.00;58621.06;5027054;28;20243;-52
2022/10/15 00:06:23;;;;;;;16.13;14.27;;;;;;;-145.23;100.00;58621.06;5046570;28;20235;-52
2022/10/15 00:08:49;;;;;;;15.18;13.57;;;;;;;-145.23;100.00;58621.06;5033584;28;20232;-51
2022/10/15 00:11:18;;;;;;;17.90;15.38;;;;;;;-145.23;100.00;58621.06;5033304;28;20266;-51
2022/10/15 00:13:45;;;;;;;18.50;13.50;;;;;;;-145.23;100.00;58621.06;5040239;28;20239;-52
2022/10/15 00:16:13;;;;;;;18.20;13.45;;;;;;;-145.23;100.00;58621.06;5020031;28;20237;-51
2022/10/15 00:18:40;;;;;;;16.90;15.00;;;;;;;-145.23;100.00;58621.06;5023136;28;20228;-51
2022/10/15 00:21:10;;;;;;;19.52;15.00;;;;;;;-145.23;100.00;58621.06;5007335;28;20698;-51
2022/10/15 00:23:38;;;;;;;18.17;15.07;;;;;;;-145.23;100.00;58621.06;5011566;28;20233;-52
2022/10/15 00:26:07;;;;;;;21.02;15.95;;;;;;;-145.23;100.00;58621.06;5013029;28;20780;-52
2022/10/15 00:28:33;;;;;;;17.83;15.23;;;;;;;-145.23;100.00;58621.06;5024153;28;20235;-52
2022/10/15 00:31:01;;;;;;;16.02;13.55;;;;;;;-145.23;100.00;58621.06;5010929;28;20235;-53
2022/10/15 00:33:28;;;;;;;16.73;14.95;;;;;;;-145.23;100.00;58621.06;5022799;28;20259;-53
2022/10/15 00:36:02;;;;;;;15.65;13.20;;;;;;;-145.23;100.00;58621.06;5014606;28;20240;-53
2022/10/15 00:38:28;;;;;;;19.92;16.20;;;;;;;-145.23;100.00;58621.06;5018641;28;20240;-52
2022/10/15 00:40:56;;;;;;;18.55;15.25;;;;;;;-145.23;100.00;58621.06;5023729;28;20905;-51
2022/10/15 00:43:40;;;;;;;20.40;16.75;;;;;;;-145.23;100.00;58621.06;5033772;28;20232;-52
2022/10/15 00:46:15;;;;;;;17.23;15.43;;;;;;;-145.23;100.00;58621.06;5017817;28;20237;-51
2022/10/15 00:48:42;;;;;;;20.17;16.70;;;;;;;-145.23;100.00;58621.06;5024855;28;20227;-53
2022/10/15 00:51:08;;;;;;;16.30;14.57;;;;;;;-145.23;100.00;58621.06;5019162;28;20232;-52
2022/10/15 00:53:35;;;;;;;18.60;15.73;;;;;;;-145.23;100.00;58621.06;5034732;28;20237;-53
2022/10/15 00:56:03;;;;;;;17.17;15.32;;;;;;;-145.23;100.00;58621.06;5018179;28;20654;-52
2022/10/15 00:58:31;;;;;;;20.58;15.20;;;;;;;-145.23;100.00;58621.06;5008632;28;20241;-52
2022/10/15 01:00:58;;;;;;;18.63;16.70;;;;;;;-145.23;100.00;58621.06;5022277;28;20621;-52
2022/10/15 01:03:25;;;;;;;16.35;14.65;;;;;;;-145.23;100.00;58621.06;5021490;28;20240;-52
2022/10/15 01:05:52;;;;;;;16.67;14.95;;;;;;;-145.23;100.00;58621.06;5011939;28;20251;-53
2022/10/15 01:08:19;;;;;;;21.70;16.15;;;;;;;-145.23;100.00;58621.06;5033334;28;20239;-53
2022/10/15 01:10:51;;;;;;;20.05;15.18;;;;;;;-145.23;100.00;58621.06;5032173;28;20232;-53
2022/10/15 01:13:23;;;;;;;16.58;14.88;;;;;;;-145.23;100.00;58621.06;5020116;28;20255;-52
2022/10/15 01:15:56;;;;;;;16.58;14.65;;;;;;;-145.23;100.00;58621.06;5001387;28;20653;-52
2022/10/15 01:18:24;;;;;;;19.77;15.35;;;;;;;-145.23;100.00;58621.06;5020635;28;20241;-51
2022/10/15 01:20:58;;;;;;;19.52;16.50;;;;;;;-145.23;100.00;58621.06;5013544;28;20229;-52
2022/10/15 01:23:54;;;;;;;21.50;15.68;;;;;;;-145.23;100.00;58621.06;5022932;28;20295;-51
2022/10/15 01:26:56;;;;;;;17.10;15.02;;;;;;;-145.23;100.00;58621.06;5019128;28;20694;-52
2022/10/15 01:29:36;;;;;;;20.83;16.10;;;;;;;-145.23;100.00;58621.06;4971369;28;20225;-51
2022/10/15 01:32:08;;;;;;;19.48;17.15;;;;;;;-145.23;100.00;58621.06;5024621;28;20244;-53
2022/10/15 01:34:39;;;;;;;18.35;15.43;;;;;;;-145.23;100.00;58621.06;5023486;28;20861;-53
2022/10/15 01:37:09;;;;;;;22.13;15.95;;;;;;;-145.23;100.00;58621.06;5037931;28;20240;-54
2022/10/15 01:39:39;;;;;;;18.52;15.52;;;;;;;-145.23;100.00;58621.06;5040905;28;20228;-52
2022/10/15 01:42:12;;;;;;;17.35;14.75;;;;;;;-145.23;100.00;58621.06;5023100;28;20249;-52
2022/10/15 01:44:42;;;;;;;18.77;15.75;;;;;;;-145.23;100.00;58621.06;5024573;28;20230;-52
2022/10/15 01:47:14;;;;;;;17.20;15.38;;;;;;;-145.23;100.00;58621.06;5042527;28;20243;-52
2022/10/15 01:49:43;;;;;;;19.73;15.98;;;;;;;-145.23;100.00;58621.06;5019459;28;20714;-51
2022/10/15 01:52:12;;;;;;;21.17;16.30;;;;;;;-145.23;100.00;58621.06;5014217;28;20279;-52
2022/10/15 01:54:39;;;;;;;23.10;17.45;;;;;;;-145.23;100.00;58621.06;5013471;28;20240;-52
2022/10/15 01:57:06;;;;;;;18.40;15.98;;;;;;;-145.23;100.00;58621.06;5018253;28;20244;-52
2022/10/15 01:59:34;;;;;;;19.67;16.00;;;;;;;-145.23;100.00;58621.06;5032604;28;20261;-52
2022/10/15 02:02:00;;;;;;;18.90;16.05;;;;;;;-145.23;100.00;58621.06;5044914;28;20671;-52
2022/10/15 02:04:30;;;;;;;18.77;15.02;;;;;;;-145.23;100.00;58621.06;5039446;28;20240;-51
2022/10/15 02:07:00;;;;;;;17.55;15.68;;;;;;;-145.23;100.00;58621.06;5036274;28;20228;-52
2022/10/15 02:09:33;;;;;;;17.75;15.85;;;;;;;-145.23;100.00;58621.06;5012022;28;20245;-52
2022/10/15 02:12:09;;;;;;;19.05;16.45;;;;;;;-145.23;100.00;58621.06;5018114;28;20233;-52
2022/10/15 02:14:40;;;;;;;19.95;16.58;;;;;;;-145.23;100.00;58621.06;5013300;28;20797;-52
2022/10/15 02:17:09;;;;;;;18.45;15.68;;;;;;;-145.23;100.00;58621.06;5017084;28;20236;-52
2022/10/15 02:19:42;;;;;;;19.38;16.20;;;;;;;-145.23;100.00;58621.06;5022007;28;20287;-52
2022/10/15 02:22:14;;;;;;;19.55;15.98;;;;;;;-145.23;100.00;58621.06;5024342;28;20239;-52
2022/10/15 02:24:44;;;;;;;18.83;16.80;;;;;;;-145.23;100.00;58621.06;5043523;28;20726;-52
2022/10/15 02:27:12;;;;;;;19.40;17.35;;;;;;;-145.23;100.00;58621.06;5024333;28;20244;-51
2022/10/15 02:29:39;;;;;;;23.55;16.98;;;;;;;-145.23;100.00;58621.06;5036910;28;20244;-52
2022/10/15 02:32:06;;;;;;;22.98;16.77;;;;;;;-145.23;100.00;58621.06;5034523;28;20284;-52
2022/10/15 02:34:34;;;;;;;22.17;17.13;;;;;;;-145.23;100.00;58621.06;5038314;28;20248;-52
2022/10/15 02:37:04;;;;;;;19.63;16.88;;;;;;;-145.23;100.00;58621.06;5041225;28;20768;-51
2022/10/15 02:39:30;;;;;;;18.85;16.80;;;;;;;-145.23;100.00;58621.06;5042121;28;20772;-53
2022/10/15 02:41:57;;;;;;;20.35;17.63;;;;;;;-145.23;100.00;58621.06;5041184;28;20262;-52
2022/10/15 02:44:23;;;;;;;17.02;14.15;;;;;;;-145.23;100.00;58621.06;5021605;28;20248;-52
2022/10/15 02:46:50;;;;;;;18.73;16.33;;;;;;;-145.23;100.00;58621.06;5012805;28;20233;-52
2022/10/15 02:49:16;;;;;;;19.95;17.10;;;;;;;-145.23;100.00;58621.06;5022612;28;20240;-52
2022/10/15 02:51:43;;;;;;;20.23;17.75;;;;;;;-145.23;100.00;58621.06;5023375;28;20233;-51
2022/10/15 02:54:10;;;;;;;17.25;15.48;;;;;;;-145.23;100.00;58621.06;5016470;28;20739;-52
2022/10/15 02:56:38;;;;;;;22.83;18.20;;;;;;;-145.23;100.00;58621.06;5010788;28;20233;-53
2022/10/15 02:59:04;;;;;;;22.15;17.00;;;;;;;-145.23;100.00;58621.06;5031966;28;20232;-52
2022/10/15 03:01:31;;;;;;;21.75;16.40;;;;;;;-145.23;100.00;58621.06;5043103;28;20385;-52
2022/10/15 03:03:57;;;;;;;18.63;16.63;;;;;;;-145.23;100.00;58621.06;5032864;28;20240;-53
2022/10/15 03:06:25;;;;;;;18.92;16.90;;;;;;;-145.23;100.00;58621.06;5023740;28;20283;-52
2022/10/15 03:08:51;;;;;;;21.63;18.23;;;;;;;-145.23;100.00;58621.06;5007611;28;20225;-52
2022/10/15 03:11:19;;;;;;;24.33;18.35;;;;;;;-145.23;100.00;58621.06;5014040;28;20868;-51
2022/10/15 03:13:46;;;;;;;19.08;16.80;;;;;;;-145.23;100.00;58621.06;5015808;28;20225;-51
2022/10/15 03:16:12;;;;;;;17.98;16.08;;;;;;;-145.23;100.00;58621.06;5024933;28;20240;-52
2022/10/15 03:18:39;;;;;;;19.02;16.30;;;;;;;-145.23;100.00;58621.06;5004038;28;20231;-51
2022/10/15 03:21:05;;;;;;;19.20;17.13;;;;;;;-145.23;100.00;58621.06;5017312;28;20240;-54
2022/10/15 03:23:32;;;;;;;18.27;16.33;;;;;;;-145.23;100.00;58621.06;5009926;28;20399;-53
2022/10/15 03:25:58;;;;;;;18.42;16.35;;;;;;;-145.23;100.00;58621.06;5023157;28;20232;-52
2022/10/15 03:28:26;;;;;;;19.88;16.33;;;;;;;-145.23;100.00;58621.06;5008929;28;20233;-52
2022/10/15 03:30:52;;;;;;;16.00;14.27;;;;;;;-145.23;100.00;58621.06;5015113;28;20224;-51
2022/10/15 03:33:19;;;;;;;19.13;16.88;;;;;;;-145.23;100.00;58621.06;5028609;28;20236;-53
2022/10/15 03:35:45;;;;;;;19.73;17.67;;;;;;;-145.23;100.00;58621.06;5035805;28;20248;-52
2022/10/15 03:38:12;;;;;;;19.60;16.33;;;;;;;-145.23;100.00;58621.06;5032447;28;20239;-52
2022/10/15 03:40:38;;;;;;;23.40;15.50;;;;;;;-145.23;100.00;58621.06;5027996;28;20231;-51
2022/10/15 03:43:05;;;;;;;18.50;15.50;;;;;;;-145.23;100.00;58621.06;5032819;28;20606;-54
2022/10/15 03:45:33;;;;;;;17.95;15.70;;;;;;;-145.23;100.00;58621.06;5035661;28;20283;-53
2022/10/15 03:48:00;;;;;;;19.63;16.83;;;;;;;-145.23;100.00;58621.06;5025450;28;20237;-50
2022/10/15 03:50:26;;;;;;;17.15;14.48;;;;;;;-145.23;100.00;58621.06;5035873;28;20239;-51
2022/10/15 03:52:52;;;;;;;18.52;16.23;;;;;;;-145.23;100.00;58621.06;5040561;28;20227;-53
2022/10/15 03:55:19;;;;;;;21.15;16.58;;;;;;;-145.23;100.00;58621.06;5018905;28;20753;-52
2022/10/15 03:57:45;;;;;;;17.95;15.55;;;;;;;-145.23;100.00;58621.06;5013692;28;20227;-51
2022/10/15 04:00:13;;;;;;;22.63;16.67;;;;;;;-145.23;100.00;58621.06;5024881;28;20718;-52
2022/10/15 04:02:41;;;;;;;18.70;16.00;;;;;;;-145.23;100.00;58621.06;5017640;28;20272;-52
2022/10/15 04:05:08;;;;;;;24.15;16.67;;;;;;;-145.23;100.00;58621.06;5012734;28;20251;-53
2022/10/15 04:07:35;;;;;;;18.83;16.73;;;;;;;-145.23;100.00;58621.06;5022075;28;20706;-53
2022/10/15 04:10:02;;;;;;;21.38;16.10;;;;;;;-145.23;100.00;58621.06;5031170;28;20228;-51
2022/10/15 04:12:29;;;;;;;17.80;15.90;;;;;;;-145.23;100.00;58621.06;5023390;28;20260;-53
2022/10/15 04:14:55;;;;;;;17.90;15.48;;;;;;;-145.23;100.00;58621.06;5015546;28;20817;-52
2022/10/15 04:17:22;;;;;;;17.10;15.27;;;;;;;-145.23;100.00;58621.06;5021664;28;20239;-52
2022/10/15 04:19:50;;;;;;;16.85;14.43;;;;;;;-145.23;100.00;58621.06;5022877;28;20779;-52
2022/10/15 04:22:16;;;;;;;22.25;15.93;;;;;;;-145.23;100.00;58621.06;5022743;28;20229;-51
2022/10/15 04:24:43;;;;;;;19.55;15.80;;;;;;;-145.23;100.00;58621.06;5023944;28;20624;-53
2022/10/15 04:27:10;;;;;;;17.13;15.23;;;;;;;-145.23;100.00;58621.06;5022135;28;20237;-51
2022/10/15 04:29:37;;;;;;;16.75;15.02;;;;;;;-145.23;100.00;58621.06;5023192;28;20240;-52
2022/10/15 04:32:04;;;;;;;19.52;16.58;;;;;;;-145.23;100.00;58621.06;5018455;28;20319;-56
2022/10/15 04:34:31;;;;;;;18.25;14.98;;;;;;;-145.23;100.00;58621.06;5038507;28;20297;-53
2022/10/15 04:36:59;;;;;;;16.92;15.13;;;;;;;-145.23;100.00;58621.06;5043559;28;20243;-52
2022/10/15 04:39:26;;;;;;;15.77;13.10;;;;;;;-145.23;100.00;58621.06;5041525;28;20250;-52
2022/10/15 04:41:53;;;;;;;17.60;15.55;;;;;;;-145.23;100.00;58621.06;5034840;28;20232;-53
2022/10/15 04:44:20;;;;;;;16.88;14.20;;;;;;;-145.23;100.00;58621.06;5021599;28;20251;-51
2022/10/15 04:46:46;;;;;;;16.02;13.80;;;;;;;-145.23;100.00;58621.06;5010848;28;20312;-53
2022/10/15 04:49:13;;;;;;;20.40;15.32;;;;;;;-145.23;100.00;58621.06;5023828;28;20769;-51
2022/10/15 04:51:40;;;;;;;16.60;14.63;;;;;;;-145.23;100.00;58621.06;5030549;28;20236;-55
2022/10/15 04:54:08;;;;;;;14.70;12.68;;;;;;;-145.23;100.00;58621.06;5022341;28;20241;-51
2022/10/15 04:56:34;;;;;;;16.20;14.50;;;;;;;-145.23;100.00;58621.06;5011988;28;20291;-51
2022/10/15 04:59:01;;;;;;;17.48;13.23;;;;;;;-145.23;100.00;58621.06;5025876;28;20228;-52
2022/10/15 05:01:28;;;;;;;16.77;14.65;;;;;;;-145.23;100.00;58621.06;5012347;28;20257;-51
2022/10/15 05:03:55;;;;;;;14.40;12.93;;;;;;;-145.23;100.00;58621.06;5009870;28;20585;-51
2022/10/15 05:06:23;;;;;;;19.20;15.35;;;;;;;-145.23;100.00;58621.06;5014069;28;20232;-51
2022/10/15 05:08:50;;;;;;;17.63;14.63;;;;;;;-145.23;100.00;58621.06;5012351;28;20221;-51
2022/10/15 05:11:20;;;;;;;16.13;14.43;;;;;;;-145.23;100.00;58621.06;5012621;28;20235;-52
2022/10/15 05:13:47;;;;;;;17.17;14.55;;;;;;;-145.23;100.00;58621.06;5006123;28;20770;-53
2022/10/15 05:16:15;;;;;;;15.75;13.93;;;;;;;-145.23;100.00;58621.06;5003209;28;20243;-52
2022/10/15 05:18:43;;;;;;;19.63;14.63;;;;;;;-145.23;100.00;58621.06;5008118;28;20240;-52
2022/10/15 05:21:10;;;;;;;16.92;14.77;;;;;;;-145.23;100.00;58621.06;5005114;28;20233;-52
2022/10/15 05:23:37;;;;;;;15.77;14.15;;;;;;;-145.23;100.00;58621.06;5025827;28;20229;-53
2022/10/15 05:26:06;;;;;;;16.02;14.32;;;;;;;-145.23;100.00;58621.06;5032475;28;20434;-52
2022/10/15 05:28:35;;;;;;;14.50;12.77;;;;;;;-145.23;100.00;58621.06;5032872;28;20235;-53
2022/10/15 05:31:06;;;;;;;16.15;14.43;;;;;;;-145.23;100.00;58621.06;5036183;28;20251;-51
2022/10/15 05:33:33;;;;;;;19.27;14.13;;;;;;;-145.23;100.00;58621.06;5027717;28;20398;-52
2022/10/15 05:36:09;;;;;;;17.52;14.20;;;;;;;-145.23;100.00;58621.06;5024964;28;20787;-51
2022/10/15 05:38:36;;;;;;;16.45;14.50;;;;;;;-145.23;100.00;58621.06;5018959;28;20231;-57
2022/10/15 05:41:03;;;;;;;15.98;14.30;;;;;;;-145.23;100.00;58621.06;5030501;28;20393;-53
2022/10/15 05:43:30;;;;;;;16.25;14.55;;;;;;;-145.23;100.00;58621.06;5031993;28;20233;-52
2022/10/15 05:45:58;;;;;;;16.63;14.90;;;;;;;-145.23;100.00;58621.06;5001368;28;20233;-52
2022/10/15 05:48:25;;;;;;;16.60;14.02;;;;;;;-145.23;100.00;58621.06;5003812;28;20228;-52
2022/10/15 05:50:52;;;;;;;15.68;13.00;;;;;;;-145.23;100.00;58621.06;5010835;28;20315;-52
2022/10/15 05:53:19;;;;;;;16.90;15.20;;;;;;;-145.23;100.00;58621.06;5017597;28;20639;-52
2022/10/15 05:55:46;;;;;;;15.57;13.40;;;;;;;-145.23;100.00;58621.06;5003753;28;20235;-53
2022/10/15 05:58:13;;;;;;;15.48;13.88;;;;;;;-145.23;100.00;58621.06;5017490;28;20240;-52
2022/10/15 06:00:40;;;;;;;16.40;14.13;;;;;;;-145.23;100.00;58621.06;5023961;28;20228;-53
2022/10/15 06:03:12;;;;;;;14.95;13.43;;;;;;;-145.23;100.00;58621.06;5019894;28;20268;-52
2022/10/15 06:05:38;;;;;;;16.83;14.30;;;;;;;-145.23;100.00;58621.06;5023261;28;20786;-53
2022/10/15 06:08:05;;;;;;;16.55;14.27;;;;;;;-145.23;100.00;58621.06;5028581;28;20297;-51
2022/10/15 06:10:35;;;;;;;15.48;13.27;;;;;;;-145.23;100.00;58621.06;5021157;28;20233;-52
2022/10/15 06:13:02;;;;;;;16.65;13.85;;;;;;;-145.23;100.00;58621.06;5022962;28;20290;-53
2022/10/15 06:15:29;;;;;;;16.13;13.43;;;;;;;-145.23;100.00;58621.06;5010584;28;20266;-53
2022/10/15 06:17:55;;;;;;;19.05;13.63;;;;;;;-145.23;100.00;58621.06;5039285;28;20224;-53
2022/10/15 06:20:24;;;;;;;17.73;14.32;;;;;;;-145.23;100.00;58621.06;5032842;28;20236;-53
2022/10/15 06:22:51;;;;;;;17.58;14.05;;;;;;;-145.23;100.00;58621.06;5031273;28;20234;-52
2022/10/15 06:25:18;;;;;;;16.48;14.65;;;;;;;-145.23;100.00;58621.06;5036215;28;20239;-52
2022/10/15 06:27:45;;;;;;;17.02;14.38;;;;;;;-145.23;100.00;58621.06;5033288;28;20310;-52
2022/10/15 06:30:12;;;;;;;16.60;14.05;;;;;;;-145.23;100.00;58621.06;5028766;28;20704;-52
2022/10/15 06:32:38;;;;;;;16.02;13.48;;;;;;;-145.23;100.00;58621.06;5047037;28;20232;-53
2022/10/15 06:35:06;;;;;;;15.57;13.98;;;;;;;-145.23;100.00;58621.06;5024806;28;20235;-51
2022/10/15 06:37:35;;;;;;;17.25;14.13;;;;;;;-145.23;100.00;58621.06;5046968;28;20273;-52
2022/10/15 06:40:01;;;;;;;15.93;14.23;;;;;;;-145.23;100.00;58621.06;5036416;28;20232;-52
2022/10/15 06:42:28;;;;;;;16.90;13.75;;;;;;;-145.23;100.00;58621.06;5041004;28;20223;-52
2022/10/15 06:44:55;;;;;;;15.65;13.48;;;;;;;-145.23;100.00;58621.06;5019889;28;20318;-51
2022/10/15 06:47:22;;;;;;;16.55;13.30;;;;;;;-145.23;100.00;58621.06;5015989;28;20225;-52
2022/10/15 06:49:52;;;;;;;15.32;13.52;;;;;;;-145.23;100.00;58621.06;5012868;28;20233;-52
2022/10/15 06:52:19;;;;;;;18.55;13.75;;;;;;;-145.23;100.00;58621.06;5012879;28;20260;-52
2022/10/15 06:54:47;;;;;;;14.45;12.98;;;;;;;-145.23;100.00;58621.06;5020144;28;20229;-52
2022/10/15 06:57:15;;;;;;;16.25;13.25;;;;;;;-145.23;100.00;58621.06;5011992;28;20721;-53
2022/10/15 06:59:42;;;;;;;15.88;13.20;;;;;;;-145.23;100.00;58621.06;5015565;28;20229;-52
2022/10/15 07:02:09;;;;;;;17.45;13.63;;;;;;;-145.23;100.00;58621.06;5016673;28;20252;-51
2022/10/15 07:04:36;;;;;;;14.32;12.82;;;;;;;-145.23;100.00;58621.06;5036865;28;20582;-53
2022/10/15 07:07:03;;;;;;;18.05;13.93;;;;;;;-145.23;100.00;58621.06;5010845;28;20233;-52
2022/10/15 07:09:30;;;;;;;14.13;12.00;;;;;;;-145.23;100.00;58621.06;5011957;28;20595;-52
2022/10/15 07:12:01;;;;;;;12.50;11.30;;;;;;;-145.23;100.00;58621.06;5013973;28;20247;-52
2022/10/15 07:14:28;;;;;;;17.73;12.85;;;;;;;-145.23;100.00;58621.06;5018477;28;20239;-52
2022/10/15 07:16:58;;;;;;;16.63;13.77;;;;;;;-145.23;100.00;58621.06;5013196;28;20247;-53
2022/10/15 07:19:27;;;;;;;15.00;12.48;;;;;;;-145.23;100.00;58621.06;5008718;28;20244;-52
2022/10/15 07:21:54;;;;;;;14.60;13.10;;;;;;;-145.23;100.00;58621.06;5016559;28;20224;-54
2022/10/15 07:24:21;;;;;;;15.38;13.77;;;;;;;-145.23;100.00;58621.06;5007744;28;20231;-52
2022/10/15 07:26:48;;;;;;;15.30;13.80;;;;;;;-145.23;100.00;58621.06;5023549;28;20224;-53
2022/10/15 07:29:19;;;;;;;16.17;13.32;;;;;;;-145.23;100.00;58621.06;5022339;28;20237;-52
2022/10/15 07:31:46;;;;;;;13.50;12.05;;;;;;;-145.23;100.00;58621.06;5021689;28;20270;-51
2022/10/15 07:34:13;;;;;;;13.20;11.80;;;;;;;-145.23;100.00;58621.06;5020743;28;20253;-52
2022/10/15 07:36:40;;;;;;;15.85;12.98;;;;;;;-145.23;100.00;58621.06;5026764;28;20228;-52
2022/10/15 07:39:07;;;;;;;16.27;11.43;;;;;;;-145.23;100.00;58621.06;5009183;28;20233;-52
2022/10/15 07:41:34;;;;;;;12.48;11.27;;;;;;;-145.23;100.00;58621.06;5019881;28;20237;-51
2022/10/15 07:44:01;;;;;;;12.95;11.65;;;;;;;-145.23;100.00;58621.06;5024271;28;20627;-53
2022/10/15 07:46:29;;;;;;;15.15;11.35;;;;;;;-145.23;100.00;58621.06;5017298;28;20233;-52
2022/10/15 07:48:56;;;;;;;17.40;12.95;;;;;;;-145.23;100.00;58621.06;5024123;28;20311;-52
2022/10/15 07:51:22;;;;;;;12.23;10.98;;;;;;;-145.23;100.00;58621.06;5023976;28;20239;-53
2022/10/15 07:53:49;;;;;;;12.20;11.00;;;;;;;-145.23;100.00;58621.06;5018451;28;20386;-53
2022/10/15 07:56:18;;;;;;;11.43;10.23;;;;;;;-145.23;100.00;58621.06;5003247;28;20240;-51
2022/10/15 07:58:50;;;;;;;12.07;10.30;;;;;;;-145.23;100.00;58621.06;5011623;28;20796;-52
2022/10/15 08:01:18;;;;;;;10.98;9.93;;;;;;;-145.23;100.00;58621.06;5006433;28;20286;-52
2022/10/15 08:03:46;;;;;;;12.32;11.07;;;;;;;-145.23;100.00;58621.06;5013084;28;20236;-51
2022/10/15 08:06:13;;;;;;;11.20;10.05;;;;;;;-145.23;100.00;58621.06;5032659;28;20649;-51
2022/10/15 08:08:40;;;;;;;12.48;11.27;;;;;;;-145.23;100.00;58621.06;5029299;28;20232;-54
2022/10/15 08:11:08;;;;;;;14.70;13.20;;;;;;;-145.23;100.00;58621.06;5020826;28;20263;-52
2022/10/15 08:13:40;;;;;;;10.52;9.43;;;;;;;-145.23;100.00;58621.06;5038908;28;20232;-52
2022/10/15 08:16:07;;;;;;;11.60;10.40;;;;;;;-145.23;100.00;58621.06;5030447;28;20254;-56
2022/10/15 08:18:35;;;;;;;11.70;10.05;;;;;;;-145.23;100.00;58621.06;5026035;28;20716;-52
2022/10/15 08:21:03;;;;;;;10.38;8.75;;;;;;;-145.23;100.00;58621.06;5035200;28;20711;-52
2022/10/15 08:23:30;;;;;;;13.25;10.43;;;;;;;-145.23;100.00;58621.06;5034216;28;20448;-52
2022/10/15 08:25:59;;;;;;;11.27;9.90;;;;;;;-145.23;100.00;58621.06;5038833;28;20326;-51
2022/10/15 08:28:26;;;;;;;10.77;9.15;;;;;;;-145.23;100.00;58621.06;5030678;28;21482;-51
2022/10/15 08:30:53;;;;;;;13.50;10.93;;;;;;;-145.23;100.00;58621.06;5031486;28;20277;-52
2022/10/15 08:33:20;;;;;;;10.57;9.48;;;;;;;-145.23;100.00;58621.06;5037709;28;20656;-51
2022/10/15 08:35:46;;;;;;;12.48;9.45;;;;;;;-145.23;100.00;58621.06;5039474;28;20783;-51
2022/10/15 08:38:15;;;;;;;10.90;9.90;;;;;;;-145.23;100.00;58621.06;5042157;28;20312;-51
2022/10/15 08:40:47;;;;;;;10.05;8.93;;;;;;;-145.23;100.00;58621.06;5038558;28;20233;-53
2022/10/15 08:43:18;;;;;;;8.82;7.75;;;;;;;-145.23;100.00;58621.06;5018998;28;20252;-52
2022/10/15 08:45:45;;;;;;;9.90;8.18;;;;;;;-145.23;100.00;58621.06;5014473;28;20240;-54
2022/10/15 08:48:14;;;;;;;8.77;7.97;;;;;;;-145.23;100.00;58621.06;5006561;28;20233;-52
2022/10/15 08:50:43;;;;;;;12.40;8.80;;;;;;;-145.23;100.00;58621.06;5018768;28;20236;-53
2022/10/15 08:53:13;;;;;;;8.48;7.55;;;;;;;-145.23;100.00;58621.06;5021152;28;20637;-52
2022/10/15 08:55:43;;;;;;;10.20;7.78;;;;;;;-145.23;100.00;58621.06;5011242;28;20241;-53
2022/10/15 08:58:13;;;;;;;9.27;8.38;;;;;;;-145.23;100.00;58621.06;5016974;28;20244;-57
2022/10/15 09:00:43;;;;;;;8.30;7.10;;;;;;;-145.23;100.00;58621.06;5027728;28;20240;-51
2022/10/15 09:03:19;;;;;;;12.05;7.20;;;;;;;-145.23;100.00;58621.06;5013299;28;20264;-53
2022/10/15 09:05:52;;;;;;;8.48;7.68;;;;;;;-145.23;100.00;58621.06;5020698;28;20296;-52
2022/10/15 09:08:26;;;;;;;6.22;5.63;;;;;;;-145.23;100.00;58621.06;5017728;28;20362;-52
2022/10/15 09:10:58;;;;;;;8.32;7.50;;;;;;;-145.23;100.00;58621.06;5013413;28;20228;-53
2022/10/15 09:13:26;;;;;;;8.20;6.75;;;;;;;-145.23;100.00;58621.06;5021215;28;20714;-52
2022/10/15 09:16:00;;;;;;;6.45;5.88;;;;;;;-145.23;100.00;58621.06;5003895;28;20240;-51
2022/10/15 09:18:31;;;;;;;8.73;7.13;;;;;;;-145.23;100.00;58621.06;5015379;28;20243;-51
2022/10/15 09:20:58;;;;;;;7.15;6.50;;;;;;;-145.23;100.00;58621.06;5019839;28;20314;-51
2022/10/15 09:23:28;;;;;;;6.55;5.95;;;;;;;-145.23;100.00;58621.06;5013130;28;20236;-51
2022/10/15 09:26:00;;;;;;;7.22;6.53;;;;;;;-145.23;100.00;58621.06;5020199;28;20224;-53
2022/10/15 09:28:31;;;;;;;8.45;7.65;;;;;;;-145.23;100.00;58621.06;5026584;28;20243;-52
2022/10/15 09:30:58;;;;;;;13.30;9.10;;;;;;;-145.23;100.00;58621.06;5024548;28;20242;-51
2022/10/15 09:33:35;;;;;;;8.93;8.13;;;;;;;-145.23;100.00;58621.06;5006980;28;20608;-52
2022/10/15 09:36:12;;;;;;;9.35;8.30;;;;;;;-145.23;100.00;58621.06;5018991;28;20282;-51
2022/10/15 09:38:45;;;;;;;8.98;8.07;;;;;;;-145.23;100.00;58621.06;5018896;28;20225;-51
2022/10/15 09:41:22;;;;;;;8.52;7.72;;;;;;;-145.23;100.00;58621.06;5016061;28;22518;-53
2022/10/15 09:43:50;;;;;;;8.82;8.02;;;;;;;-145.23;100.00;58621.06;5016087;28;20645;-52
2022/10/15 09:46:17;;;;;;;9.02;7.80;;;;;;;-145.23;100.00;58621.06;5018080;28;20320;-50
2022/10/15 09:48:47;;;;;;;8.93;8.02;;;;;;;-145.23;100.00;58621.06;5022157;28;20871;-51
2022/10/15 09:51:22;;;;;;;10.38;9.48;;;;;;;-145.23;100.00;58621.06;5015442;28;20224;-51
2022/10/15 09:53:54;;;;;;;8.45;7.55;;;;;;;-145.23;100.00;58621.06;5000069;28;20643;-51
2022/10/15 09:56:24;;;;;;;8.15;7.35;;;;;;;-145.23;100.00;58621.06;5019654;28;20240;-51
2022/10/15 09:58:54;;;;;;;11.40;8.10;;;;;;;-145.23;100.00;58621.06;5014777;28;20316;-52
2022/10/15 10:01:22;;;;;;;8.60;7.50;;;;;;;-145.23;100.00;58621.06;5016167;28;20289;-53
2022/10/15 10:03:52;;;;;;;6.65;6.05;;;;;;;-145.23;100.00;58621.06;5007412;28;20260;-51
2022/10/15 10:06:19;;;;;;;7.82;7.03;;;;;;;-145.23;100.00;58621.06;5016971;28;20257;-52
2022/10/15 10:08:52;;;;;;;7.30;6.68;;;;;;;-145.23;100.00;58621.06;5009106;28;20251;-54
2022/10/15 10:11:20;;;;;;;9.50;6.90;;;;;;;-145.23;100.00;58621.06;5017068;28;20233;-53
2022/10/15 10:13:53;;;;;;;6.03;5.43;;;;;;;-145.23;100.00;58621.06;5022886;28;20239;-51
2022/10/15 10:16:21;;;;;;;8.20;7.30;;;;;;;-145.23;100.00;58621.06;5015432;28;20233;-51
2022/10/15 10:19:04;;;;;;;7.72;7.03;;;;;;;-145.23;100.00;58621.06;5015431;28;20277;-52
2022/10/15 10:21:32;;;;;;;7.78;6.40;;;;;;;-145.23;100.00;58621.06;5013296;28;20239;-50
2022/10/15 10:24:19;;;;;;;8.52;7.65;;;;;;;-145.23;100.00;58621.06;5005561;28;21880;-51
2022/10/15 10:26:46;;;;;;;6.80;6.13;;;;;;;-145.23;100.00;58621.06;5011180;28;20220;-51
2022/10/15 10:29:18;;;;;;;7.60;6.80;;;;;;;-145.23;100.00;58621.06;5017884;28;20240;-51
2022/10/15 10:31:57;;;;;;;7.93;7.05;;;;;;;-145.23;100.00;58621.06;5012269;28;20285;-51
2022/10/15 10:34:27;;;;;;;6.65;5.90;;;;;;;-145.23;100.00;58621.06;5024439;28;20279;-52
2022/10/15 10:36:54;;;;;;;7.25;6.55;;;;;;;-145.23;100.00;58621.06;5009435;28;20232;-51
2022/10/15 10:39:26;;;;;;;7.68;6.72;;;;;;;-145.23;100.00;58621.06;5015366;28;20244;-51
2022/10/15 10:41:54;;;;;;;7.70;6.90;;;;;;;-145.23;100.00;58621.06;5023204;28;20734;-51
2022/10/15 10:44:27;;;;;;;7.28;6.68;;;;;;;-145.23;100.00;58621.06;5018704;28;20270;-51
2022/10/15 10:47:09;;;;;;;7.45;6.75;;;;;;;-145.23;100.00;58621.06;5020343;28;20831;-52
2022/10/15 10:49:38;;;;;;;8.35;6.15;;;;;;;-145.23;100.00;58621.06;5016719;28;20221;-52
2022/10/15 10:52:05;;;;;;;7.90;6.80;;;;;;;-145.23;100.00;58621.06;5025090;28;20239;-52
2022/10/15 10:54:33;;;;;;;6.28;5.68;;;;;;;-145.23;100.00;58621.06;5017041;28;20236;-52
2022/10/15 10:57:01;;;;;;;7.53;6.50;;;;;;;-145.23;100.00;58621.06;5007549;28;20237;-52
2022/10/15 10:59:34;;;;;;;6.85;6.25;;;;;;;-145.23;100.00;58621.06;5012790;28;20237;-51
2022/10/15 11:02:03;;;;;;;6.20;5.72;;;;;;;-145.23;100.00;58621.06;5012000;28;20231;-52
2022/10/15 11:04:34;;;;;;;7.57;5.97;;;;;;;-145.23;100.00;58621.06;5013902;28;20232;-52